sensor_id;sensor_type;location;lat;lon;timestamp;pressure;altitude;pressure_sealevel;temperature;humidity
27729;BME280;15126;42.186;24.340;2023-02-04T00:02:23;99241.28;;;4.46;58.61
27729;BME280;15126;42.186;24.340;2023-02-04T00:04:50;99232.22;;;4.42;57.23
27729;BME280;15126;42.186;24.340;2023-02-04T00:07:17;99234.16;;;4.38;58.04
27729;BME280;15126;42.186;24.340;2023-02-04T00:09:43;99233.75;;;4.29;59.29
27729;BME280;15126;42.186;24.340;2023-02-04T00:12:12;99227.06;;;4.34;59.57
27729;BME280;15126;42.186;24.340;2023-02-04T00:14:40;99230.59;;;4.38;59.25
27729;BME280;15126;42.186;24.340;2023-02-04T00:17:07;99221.13;;;4.35;58.27
27729;BME280;15126;42.186;24.340;2023-02-04T00:19:35;99224.31;;;4.44;57.62
27729;BME280;15126;42.186;24.340;2023-02-04T00:22:02;99212.09;;;4.45;57.30
27729;BME280;15126;42.186;24.340;2023-02-04T00:24:29;99213.25;;;4.41;56.00
27729;BME280;15126;42.186;24.340;2023-02-04T00:26:56;99199.47;;;4.37;55.92
27729;BME280;15126;42.186;24.340;2023-02-04T00:29:23;99215.25;;;4.40;56.38
27729;BME280;15126;42.186;24.340;2023-02-04T00:31:51;99204.19;;;4.26;56.78
27729;BME280;15126;42.186;24.340;2023-02-04T00:34:18;99203.00;;;4.31;57.03
27729;BME280;15126;42.186;24.340;2023-02-04T00:36:45;99197.06;;;4.32;56.09
27729;BME280;15126;42.186;24.340;2023-02-04T00:39:12;99201.03;;;4.35;55.44
27729;BME280;15126;42.186;24.340;2023-02-04T00:41:38;99204.97;;;4.34;55.19
27729;BME280;15126;42.186;24.340;2023-02-04T00:44:05;99204.19;;;4.26;58.44
27729;BME280;15126;42.186;24.340;2023-02-04T00:46:32;99190.38;;;4.33;57.30
27729;BME280;15126;42.186;24.340;2023-02-04T00:49:00;99176.97;;;4.35;57.36
27729;BME280;15126;42.186;24.340;2023-02-04T00:51:27;99178.94;;;4.38;58.38
27729;BME280;15126;42.186;24.340;2023-02-04T00:53:54;99169.50;;;4.39;56.80
27729;BME280;15126;42.186;24.340;2023-02-04T00:56:21;99163.97;;;4.39;56.71
27729;BME280;15126;42.186;24.340;2023-02-04T00:58:47;99156.09;;;4.34;57.66
27729;BME280;15126;42.186;24.340;2023-02-04T01:01:14;99145.84;;;4.31;57.38
27729;BME280;15126;42.186;24.340;2023-02-04T01:03:41;99133.97;;;4.27;56.76
27729;BME280;15126;42.186;24.340;2023-02-04T01:06:10;99134.41;;;4.36;56.83
27729;BME280;15126;42.186;24.340;2023-02-04T01:08:37;99123.75;;;4.38;58.03
27729;BME280;15126;42.186;24.340;2023-02-04T01:11:04;99128.47;;;4.41;58.30
27729;BME280;15126;42.186;24.340;2023-02-04T01:13:31;99124.53;;;4.39;57.85
27729;BME280;15126;42.186;24.340;2023-02-04T01:15:58;99134.00;;;4.41;58.67
27729;BME280;15126;42.186;24.340;2023-02-04T01:18:24;99118.22;;;4.38;61.00
27729;BME280;15126;42.186;24.340;2023-02-04T01:20:51;99108.75;;;4.32;60.35
27729;BME280;15126;42.186;24.340;2023-02-04T01:23:19;99109.94;;;4.38;59.27
27729;BME280;15126;42.186;24.340;2023-02-04T01:25:46;99111.13;;;4.41;59.62
27729;BME280;15126;42.186;24.340;2023-02-04T01:28:13;99104.84;;;4.40;59.59
27729;BME280;15126;42.186;24.340;2023-02-04T01:30:40;99105.22;;;4.21;60.23
27729;BME280;15126;42.186;24.340;2023-02-04T01:33:07;99097.72;;;4.07;59.47
27729;BME280;15126;42.186;24.340;2023-02-04T01:35:33;99099.69;;;4.14;59.91
27729;BME280;15126;42.186;24.340;2023-02-04T01:38:00;99086.69;;;4.18;59.15
27729;BME280;15126;42.186;24.340;2023-02-04T01:40:28;99083.91;;;4.21;59.82
27729;BME280;15126;42.186;24.340;2023-02-04T01:42:55;99064.22;;;4.12;59.84
27729;BME280;15126;42.186;24.340;2023-02-04T01:45:22;99074.06;;;4.20;59.52
27729;BME280;15126;42.186;24.340;2023-02-04T01:47:49;99072.50;;;4.27;59.21
27729;BME280;15126;42.186;24.340;2023-02-04T01:50:16;99065.00;;;4.27;59.16
27729;BME280;15126;42.186;24.340;2023-02-04T01:52:44;99057.91;;;4.26;59.79
27729;BME280;15126;42.186;24.340;2023-02-04T01:55:13;99061.44;;;4.30;59.03
27729;BME280;15126;42.186;24.340;2023-02-04T01:57:43;99056.31;;;4.32;60.45
27729;BME280;15126;42.186;24.340;2023-02-04T02:00:15;99042.13;;;4.30;59.64
27729;BME280;15126;42.186;24.340;2023-02-04T02:02:44;99040.53;;;4.33;60.16
27729;BME280;15126;42.186;24.340;2023-02-04T02:05:14;99046.84;;;4.33;60.06
27729;BME280;15126;42.186;24.340;2023-02-04T02:07:42;99054.75;;;4.35;59.91
27729;BME280;15126;42.186;24.340;2023-02-04T02:10:11;99043.31;;;4.36;60.48
27729;BME280;15126;42.186;24.340;2023-02-04T02:12:38;99033.47;;;4.14;59.47
27729;BME280;15126;42.186;24.340;2023-02-04T02:15:08;99038.19;;;4.17;59.73
27729;BME280;15126;42.186;24.340;2023-02-04T02:17:35;99015.31;;;4.16;59.59
27729;BME280;15126;42.186;24.340;2023-02-04T02:20:07;99035.41;;;4.24;59.22
27729;BME280;15126;42.186;24.340;2023-02-04T02:22:36;99024.38;;;4.28;58.62
27729;BME280;15126;42.186;24.340;2023-02-04T02:25:12;99021.63;;;4.31;58.87
27729;BME280;15126;42.186;24.340;2023-02-04T02:27:39;99012.56;;;4.34;59.70
27729;BME280;15126;42.186;24.340;2023-02-04T02:30:09;99004.66;;;4.36;58.79
27729;BME280;15126;42.186;24.340;2023-02-04T02:32:36;99016.50;;;4.37;57.42
27729;BME280;15126;42.186;24.340;2023-02-04T02:35:04;98998.34;;;4.32;57.98
27729;BME280;15126;42.186;24.340;2023-02-04T02:37:31;98995.59;;;4.32;59.57
27729;BME280;15126;42.186;24.340;2023-02-04T02:39:58;98997.97;;;4.30;60.73
27729;BME280;15126;42.186;24.340;2023-02-04T02:42:26;98967.25;;;4.21;60.97
27729;BME280;15126;42.186;24.340;2023-02-04T02:44:54;98983.75;;;4.35;60.50
27729;BME280;15126;42.186;24.340;2023-02-04T02:47:21;98987.31;;;4.39;60.49
27729;BME280;15126;42.186;24.340;2023-02-04T02:49:50;98984.56;;;4.36;59.75
27729;BME280;15126;42.186;24.340;2023-02-04T02:52:18;98956.56;;;4.30;60.21
27729;BME280;15126;42.186;24.340;2023-02-04T02:54:46;98963.25;;;4.36;60.32
27729;BME280;15126;42.186;24.340;2023-02-04T02:57:14;98968.41;;;4.31;59.99
27729;BME280;15126;42.186;24.340;2023-02-04T02:59:43;98971.16;;;4.31;59.50
27729;BME280;15126;42.186;24.340;2023-02-04T03:02:11;98967.59;;;4.30;60.09
27729;BME280;15126;42.186;24.340;2023-02-04T03:04:41;98956.19;;;4.32;60.00
27729;BME280;15126;42.186;24.340;2023-02-04T03:07:09;98951.44;;;4.32;60.17
27729;BME280;15126;42.186;24.340;2023-02-04T03:09:37;98958.16;;;4.35;59.85
27729;BME280;15126;42.186;24.340;2023-02-04T03:12:05;98950.63;;;4.39;59.52
27729;BME280;15126;42.186;24.340;2023-02-04T03:14:32;98950.25;;;4.40;59.31
27729;BME280;15126;42.186;24.340;2023-02-04T03:17:01;98924.25;;;4.34;60.97
27729;BME280;15126;42.186;24.340;2023-02-04T03:19:30;98938.41;;;4.40;60.26
27729;BME280;15126;42.186;24.340;2023-02-04T03:21:58;98938.00;;;4.45;60.55
27729;BME280;15126;42.186;24.340;2023-02-04T03:24:25;98938.38;;;4.47;60.80
27729;BME280;15126;42.186;24.340;2023-02-04T03:26:52;98920.25;;;4.49;60.49
27729;BME280;15126;42.186;24.340;2023-02-04T03:29:19;98927.75;;;4.45;60.95
27729;BME280;15126;42.186;24.340;2023-02-04T03:31:46;98924.59;;;4.50;62.01
27729;BME280;15126;42.186;24.340;2023-02-04T03:34:14;98919.44;;;4.52;60.86
27729;BME280;15126;42.186;24.340;2023-02-04T03:36:41;98918.28;;;4.50;61.14
27729;BME280;15126;42.186;24.340;2023-02-04T03:39:08;98914.72;;;4.49;61.45
27729;BME280;15126;42.186;24.340;2023-02-04T03:41:35;98896.59;;;4.45;61.20
27729;BME280;15126;42.186;24.340;2023-02-04T03:44:02;98884.78;;;4.41;61.33
27729;BME280;15126;42.186;24.340;2023-02-04T03:46:28;98884.38;;;4.39;61.68
27729;BME280;15126;42.186;24.340;2023-02-04T03:48:55;98891.13;;;4.31;61.43
27729;BME280;15126;42.186;24.340;2023-02-04T03:51:23;98893.88;;;4.27;62.38
27729;BME280;15126;42.186;24.340;2023-02-04T03:53:50;98884.06;;;4.19;62.54
27729;BME280;15126;42.186;24.340;2023-02-04T03:56:17;98881.72;;;4.14;62.22
27729;BME280;15126;42.186;24.340;2023-02-04T03:58:44;98870.66;;;4.10;61.97
27729;BME280;15126;42.186;24.340;2023-02-04T04:01:11;98880.56;;;4.01;62.04
27729;BME280;15126;42.186;24.340;2023-02-04T04:03:37;98880.97;;;3.92;62.79
27729;BME280;15126;42.186;24.340;2023-02-04T04:06:04;98885.72;;;3.88;63.75
27729;BME280;15126;42.186;24.340;2023-02-04T04:08:35;98862.84;;;3.81;63.51
27729;BME280;15126;42.186;24.340;2023-02-04T04:11:02;98862.88;;;3.77;64.24
27729;BME280;15126;42.186;24.340;2023-02-04T04:13:29;98881.00;;;3.71;64.99
27729;BME280;15126;42.186;24.340;2023-02-04T04:15:56;98899.94;;;3.58;64.88
27729;BME280;15126;42.186;24.340;2023-02-04T04:18:23;98899.91;;;3.51;65.38
27729;BME280;15126;42.186;24.340;2023-02-04T04:20:49;98896.75;;;3.49;65.99
27729;BME280;15126;42.186;24.340;2023-02-04T04:23:16;98881.81;;;3.36;66.58
27729;BME280;15126;42.186;24.340;2023-02-04T04:25:44;98875.50;;;3.39;66.32
27729;BME280;15126;42.186;24.340;2023-02-04T04:28:11;98877.47;;;3.39;66.36
27729;BME280;15126;42.186;24.340;2023-02-04T04:30:38;98873.16;;;3.41;66.50
27729;BME280;15126;42.186;24.340;2023-02-04T04:33:05;98864.09;;;3.44;65.94
27729;BME280;15126;42.186;24.340;2023-02-04T04:35:32;98870.00;;;3.46;65.33
27729;BME280;15126;42.186;24.340;2023-02-04T04:37:59;98869.59;;;3.44;67.18
27729;BME280;15126;42.186;24.340;2023-02-04T04:40:26;98866.06;;;3.44;66.43
27729;BME280;15126;42.186;24.340;2023-02-04T04:42:54;98869.22;;;3.42;65.45
27729;BME280;15126;42.186;24.340;2023-02-04T04:45:21;98861.31;;;3.51;66.16
27729;BME280;15126;42.186;24.340;2023-02-04T04:47:47;98847.53;;;3.51;66.02
27729;BME280;15126;42.186;24.340;2023-02-04T04:50:15;98846.38;;;3.52;65.99
27729;BME280;15126;42.186;24.340;2023-02-04T04:52:41;98851.88;;;3.56;66.25
27729;BME280;15126;42.186;24.340;2023-02-04T04:55:09;98851.88;;;3.52;65.25
27729;BME280;15126;42.186;24.340;2023-02-04T04:57:36;98848.34;;;3.52;66.13
27729;BME280;15126;42.186;24.340;2023-02-04T05:00:05;98853.44;;;3.53;66.24
27729;BME280;15126;42.186;24.340;2023-02-04T05:02:32;98855.41;;;3.49;65.97
27729;BME280;15126;42.186;24.340;2023-02-04T05:04:59;98841.63;;;3.49;65.96
27729;BME280;15126;42.186;24.340;2023-02-04T05:07:26;98835.72;;;3.51;66.21
27729;BME280;15126;42.186;24.340;2023-02-04T05:09:53;98832.19;;;3.43;66.61
27729;BME280;15126;42.186;24.340;2023-02-04T05:12:20;98847.53;;;3.51;66.05
27729;BME280;15126;42.186;24.340;2023-02-04T05:14:46;98852.66;;;3.56;66.55
27729;BME280;15126;42.186;24.340;2023-02-04T05:17:14;98859.34;;;3.52;66.76
27729;BME280;15126;42.186;24.340;2023-02-04T05:19:41;98849.53;;;3.47;66.85
27729;BME280;15126;42.186;24.340;2023-02-04T05:22:08;98867.59;;;3.59;67.38
27729;BME280;15126;42.186;24.340;2023-02-04T05:24:35;98864.09;;;3.58;67.00
27729;BME280;15126;42.186;24.340;2023-02-04T05:27:02;98831.41;;;3.39;67.93
27729;BME280;15126;42.186;24.340;2023-02-04T05:29:28;98859.72;;;3.65;67.26
27729;BME280;15126;42.186;24.340;2023-02-04T05:31:55;98839.66;;;3.60;67.13
27729;BME280;15126;42.186;24.340;2023-02-04T05:34:23;98848.34;;;3.55;68.36
27729;BME280;15126;42.186;24.340;2023-02-04T05:36:50;98833.78;;;3.58;67.88
27729;BME280;15126;42.186;24.340;2023-02-04T05:39:17;98847.53;;;3.62;68.36
27729;BME280;15126;42.186;24.340;2023-02-04T05:41:44;98844.78;;;3.66;67.76
27729;BME280;15126;42.186;24.340;2023-02-04T05:44:11;98842.78;;;3.70;67.91
27729;BME280;15126;42.186;24.340;2023-02-04T05:46:37;98855.41;;;3.71;68.56
27729;BME280;15126;42.186;24.340;2023-02-04T05:49:04;98857.41;;;3.56;69.61
27729;BME280;15126;42.186;24.340;2023-02-04T05:51:33;98857.78;;;3.58;68.17
27729;BME280;15126;42.186;24.340;2023-02-04T05:54:00;98856.22;;;3.64;67.86
27729;BME280;15126;42.186;24.340;2023-02-04T05:56:27;98863.28;;;3.61;66.91
27729;BME280;15126;42.186;24.340;2023-02-04T05:58:54;98864.47;;;3.60;68.04
27729;BME280;15126;42.186;24.340;2023-02-04T06:01:21;98856.59;;;3.55;67.74
27729;BME280;15126;42.186;24.340;2023-02-04T06:03:48;98858.94;;;3.53;67.08
27729;BME280;15126;42.186;24.340;2023-02-04T06:06:14;98859.75;;;3.50;66.67
27729;BME280;15126;42.186;24.340;2023-02-04T06:08:43;98869.97;;;3.53;66.76
27729;BME280;15126;42.186;24.340;2023-02-04T06:11:09;98861.31;;;3.55;67.54
27729;BME280;15126;42.186;24.340;2023-02-04T06:13:36;98864.06;;;3.51;67.00
27729;BME280;15126;42.186;24.340;2023-02-04T06:16:03;98866.03;;;3.61;66.76
27729;BME280;15126;42.186;24.340;2023-02-04T06:18:30;98872.75;;;3.60;66.79
27729;BME280;15126;42.186;24.340;2023-02-04T06:20:57;98873.94;;;3.67;66.82
27729;BME280;15126;42.186;24.340;2023-02-04T06:23:23;98873.53;;;3.57;67.90
27729;BME280;15126;42.186;24.340;2023-02-04T06:25:52;98876.28;;;3.61;67.52
27729;BME280;15126;42.186;24.340;2023-02-04T06:28:19;98869.59;;;3.66;67.96
27729;BME280;15126;42.186;24.340;2023-02-04T06:30:46;98878.25;;;3.68;67.38
27729;BME280;15126;42.186;24.340;2023-02-04T06:33:13;98883.38;;;3.69;66.79
27729;BME280;15126;42.186;24.340;2023-02-04T06:35:40;98879.44;;;3.67;66.93
27729;BME280;15126;42.186;24.340;2023-02-04T06:38:07;98865.25;;;3.57;68.06
27729;BME280;15126;42.186;24.340;2023-02-04T06:40:34;98870.00;;;3.64;68.74
27729;BME280;15126;42.186;24.340;2023-02-04T06:43:02;98869.97;;;3.68;68.09
27729;BME280;15126;42.186;24.340;2023-02-04T06:45:29;98873.13;;;3.63;66.97
27729;BME280;15126;42.186;24.340;2023-02-04T06:47:55;98871.56;;;3.54;67.41
27729;BME280;15126;42.186;24.340;2023-02-04T06:50:22;98881.41;;;3.52;66.75
27729;BME280;15126;42.186;24.340;2023-02-04T06:52:49;98882.56;;;3.61;65.97
27729;BME280;15126;42.186;24.340;2023-02-04T06:55:16;98882.19;;;3.70;67.16
27729;BME280;15126;42.186;24.340;2023-02-04T06:57:43;98888.09;;;3.79;65.27
27729;BME280;15126;42.186;24.340;2023-02-04T07:00:12;98885.72;;;3.85;66.00
27729;BME280;15126;42.186;24.340;2023-02-04T07:02:39;98890.41;;;3.98;65.43
27729;BME280;15126;42.186;24.340;2023-02-04T07:05:07;98887.16;;;4.35;66.15
27729;BME280;15126;42.186;24.340;2023-02-04T07:07:34;98899.16;;;4.87;64.52
27729;BME280;15126;42.186;24.340;2023-02-04T07:10:01;98902.44;;;5.30;61.73
27729;BME280;15126;42.186;24.340;2023-02-04T07:12:27;98898.66;;;5.65;61.72
27729;BME280;15126;42.186;24.340;2023-02-04T07:14:54;98882.59;;;5.93;59.41
27729;BME280;15126;42.186;24.340;2023-02-04T07:17:23;98886.88;;;6.02;58.33
27729;BME280;15126;42.186;24.340;2023-02-04T07:19:50;98883.16;;;6.15;56.98
27729;BME280;15126;42.186;24.340;2023-02-04T07:22:17;98881.69;;;6.04;58.01
27729;BME280;15126;42.186;24.340;2023-02-04T07:24:44;98876.03;;;6.18;58.55
27729;BME280;15126;42.186;24.340;2023-02-04T07:27:10;98886.50;;;6.37;57.85
27729;BME280;15126;42.186;24.340;2023-02-04T07:29:37;98868.91;;;6.50;58.19
27729;BME280;15126;42.186;24.340;2023-02-04T07:32:04;98868.22;;;6.43;59.03
27729;BME280;15126;42.186;24.340;2023-02-04T07:34:32;98868.31;;;6.36;59.42
27729;BME280;15126;42.186;24.340;2023-02-04T07:36:59;98866.81;;;6.62;58.46
27729;BME280;15126;42.186;24.340;2023-02-04T07:39:26;98843.50;;;6.59;60.91
27729;BME280;15126;42.186;24.340;2023-02-04T07:41:53;98866.97;;;6.81;62.44
27729;BME280;15126;42.186;24.340;2023-02-04T07:44:20;98860.78;;;6.97;63.64
27729;BME280;15126;42.186;24.340;2023-02-04T07:46:46;98868.31;;;7.23;61.06
27729;BME280;15126;42.186;24.340;2023-02-04T07:49:13;98858.16;;;7.40;61.08
27729;BME280;15126;42.186;24.340;2023-02-04T07:51:41;98850.72;;;7.60;60.93
27729;BME280;15126;42.186;24.340;2023-02-04T07:54:08;98855.53;;;7.79;58.79
27729;BME280;15126;42.186;24.340;2023-02-04T07:56:35;98838.25;;;7.91;58.43
27729;BME280;15126;42.186;24.340;2023-02-04T07:59:02;98826.53;;;8.03;56.75
27729;BME280;15126;42.186;24.340;2023-02-04T08:01:28;98834.44;;;8.24;55.61
27729;BME280;15126;42.186;24.340;2023-02-04T08:03:55;98829.50;;;8.35;55.05
27729;BME280;15126;42.186;24.340;2023-02-04T08:06:22;98824.94;;;8.45;54.48
27729;BME280;15126;42.186;24.340;2023-02-04T08:08:50;98812.75;;;8.59;54.66
27729;BME280;15126;42.186;24.340;2023-02-04T08:11:17;98818.72;;;8.77;55.89
27729;BME280;15126;42.186;24.340;2023-02-04T08:13:44;98806.00;;;8.76;54.28
27729;BME280;15126;42.186;24.340;2023-02-04T08:16:10;98810.75;;;8.95;52.47
27729;BME280;15126;42.186;24.340;2023-02-04T08:18:37;98813.97;;;8.93;51.53
27729;BME280;15126;42.186;24.340;2023-02-04T08:21:04;98799.63;;;8.95;51.20
27729;BME280;15126;42.186;24.340;2023-02-04T08:23:31;98810.22;;;9.00;50.47
27729;BME280;15126;42.186;24.340;2023-02-04T08:25:59;98794.19;;;9.08;50.56
27729;BME280;15126;42.186;24.340;2023-02-04T08:28:26;98797.66;;;9.12;50.44
27729;BME280;15126;42.186;24.340;2023-02-04T08:30:53;98794.78;;;9.15;50.73
27729;BME280;15126;42.186;24.340;2023-02-04T08:33:20;98793.91;;;9.18;50.07
27729;BME280;15126;42.186;24.340;2023-02-04T08:35:47;98787.22;;;9.16;51.41
27729;BME280;15126;42.186;24.340;2023-02-04T08:38:14;98786.00;;;9.33;49.40
27729;BME280;15126;42.186;24.340;2023-02-04T08:40:41;98788.34;;;9.34;51.49
27729;BME280;15126;42.186;24.340;2023-02-04T08:43:10;98783.38;;;9.42;50.78
27729;BME280;15126;42.186;24.340;2023-02-04T08:45:36;98793.13;;;9.50;50.18
27729;BME280;15126;42.186;24.340;2023-02-04T08:48:03;98785.72;;;9.59;50.00
27729;BME280;15126;42.186;24.340;2023-02-04T08:50:31;98779.69;;;9.77;49.97
27729;BME280;15126;42.186;24.340;2023-02-04T08:52:57;98773.75;;;9.91;49.28
27729;BME280;15126;42.186;24.340;2023-02-04T08:55:24;98782.84;;;10.08;47.11
27729;BME280;15126;42.186;24.340;2023-02-04T08:57:51;98779.94;;;10.11;47.69
27729;BME280;15126;42.186;24.340;2023-02-04T09:00:20;98790.22;;;10.14;47.58
27729;BME280;15126;42.186;24.340;2023-02-04T09:02:47;98786.84;;;10.07;46.55
27729;BME280;15126;42.186;24.340;2023-02-04T09:05:13;98796.31;;;10.09;46.69
27729;BME280;15126;42.186;24.340;2023-02-04T09:07:40;98790.16;;;10.02;45.54
27729;BME280;15126;42.186;24.340;2023-02-04T09:10:08;98784.25;;;10.00;46.17
27729;BME280;15126;42.186;24.340;2023-02-04T09:12:34;98781.84;;;9.86;47.09
27729;BME280;15126;42.186;24.340;2023-02-04T09:15:01;98782.72;;;9.83;48.10
27729;BME280;15126;42.186;24.340;2023-02-04T09:17:29;98788.72;;;9.81;46.94
27729;BME280;15126;42.186;24.340;2023-02-04T09:19:56;98783.84;;;9.85;45.81
27729;BME280;15126;42.186;24.340;2023-02-04T09:22:23;98778.13;;;9.76;47.61
27729;BME280;15126;42.186;24.340;2023-02-04T09:24:50;98768.50;;;9.65;47.15
27729;BME280;15126;42.186;24.340;2023-02-04T09:27:16;98767.88;;;9.57;48.18
27729;BME280;15126;42.186;24.340;2023-02-04T09:29:44;98774.31;;;9.54;48.20
27729;BME280;15126;42.186;24.340;2023-02-04T09:32:10;98752.16;;;9.50;47.18
27729;BME280;15126;42.186;24.340;2023-02-04T09:34:38;98757.13;;;9.59;47.88
27729;BME280;15126;42.186;24.340;2023-02-04T09:37:05;98758.09;;;9.81;48.65
27729;BME280;15126;42.186;24.340;2023-02-04T09:39:32;98745.53;;;9.89;50.01
27729;BME280;15126;42.186;24.340;2023-02-04T09:41:59;98748.69;;;9.91;48.18
27729;BME280;15126;42.186;24.340;2023-02-04T09:44:27;98742.41;;;9.87;49.96
27729;BME280;15126;42.186;24.340;2023-02-04T09:46:56;98741.53;;;9.90;48.80
27729;BME280;15126;42.186;24.340;2023-02-04T09:49:24;98732.94;;;9.85;47.56
27729;BME280;15126;42.186;24.340;2023-02-04T09:51:53;98731.34;;;9.84;47.77
27729;BME280;15126;42.186;24.340;2023-02-04T09:54:22;98718.53;;;9.74;47.92
27729;BME280;15126;42.186;24.340;2023-02-04T09:56:49;98728.78;;;9.77;48.76
27729;BME280;15126;42.186;24.340;2023-02-04T09:59:19;98728.44;;;9.75;47.86
27729;BME280;15126;42.186;24.340;2023-02-04T10:01:50;98730.69;;;9.80;48.14
27729;BME280;15126;42.186;24.340;2023-02-04T10:04:21;98720.13;;;9.87;47.30
27729;BME280;15126;42.186;24.340;2023-02-04T10:06:48;98723.16;;;9.93;46.40
27729;BME280;15126;42.186;24.340;2023-02-04T10:09:16;98718.47;;;9.90;46.69
27729;BME280;15126;42.186;24.340;2023-02-04T10:11:45;98721.06;;;9.97;49.38
27729;BME280;15126;42.186;24.340;2023-02-04T10:14:16;98711.94;;;9.96;48.38
27729;BME280;15126;42.186;24.340;2023-02-04T10:16:48;98721.97;;;10.06;47.52
27729;BME280;15126;42.186;24.340;2023-02-04T10:19:18;98717.97;;;10.07;48.02
27729;BME280;15126;42.186;24.340;2023-02-04T10:21:46;98715.53;;;10.09;47.62
27729;BME280;15126;42.186;24.340;2023-02-04T10:24:15;98709.09;;;10.12;47.68
27729;BME280;15126;42.186;24.340;2023-02-04T10:26:44;98699.94;;;10.12;47.40
27729;BME280;15126;42.186;24.340;2023-02-04T10:29:14;98706.66;;;10.14;46.03
27729;BME280;15126;42.186;24.340;2023-02-04T10:31:43;98681.31;;;10.09;46.77
27729;BME280;15126;42.186;24.340;2023-02-04T10:34:12;98695.50;;;10.14;46.89
27729;BME280;15126;42.186;24.340;2023-02-04T10:36:41;98694.41;;;10.25;45.44
27729;BME280;15126;42.186;24.340;2023-02-04T10:39:12;98683.72;;;10.23;46.14
27729;BME280;15126;42.186;24.340;2023-02-04T10:41:45;98695.31;;;10.22;47.02
27729;BME280;15126;42.186;24.340;2023-02-04T10:44:15;98686.00;;;10.12;46.44
27729;BME280;15126;42.186;24.340;2023-02-04T10:46:42;98689.59;;;10.12;45.89
27729;BME280;15126;42.186;24.340;2023-02-04T10:49:18;98686.50;;;10.23;47.29
27729;BME280;15126;42.186;24.340;2023-02-04T10:51:46;98664.75;;;10.31;47.04
27729;BME280;15126;42.186;24.340;2023-02-04T10:54:13;98675.03;;;10.34;49.50
27729;BME280;15126;42.186;24.340;2023-02-04T10:56:58;98672.69;;;10.45;48.82
27729;BME280;15126;42.186;24.340;2023-02-04T10:59:26;98685.06;;;10.44;46.93
27729;BME280;15126;42.186;24.340;2023-02-04T11:01:54;98674.59;;;10.48;48.30
27729;BME280;15126;42.186;24.340;2023-02-04T11:04:22;98689.50;;;10.41;49.20
27729;BME280;15126;42.186;24.340;2023-02-04T11:06:49;98673.00;;;10.47;48.47
27729;BME280;15126;42.186;24.340;2023-02-04T11:09:17;98681.41;;;10.59;49.03
27729;BME280;15126;42.186;24.340;2023-02-04T11:11:45;98687.41;;;10.45;49.65
27729;BME280;15126;42.186;24.340;2023-02-04T11:14:25;98698.56;;;10.58;49.86
27729;BME280;15126;42.186;24.340;2023-02-04T11:16:53;98702.56;;;10.44;49.17
27729;BME280;15126;42.186;24.340;2023-02-04T11:19:35;98690.53;;;10.47;50.50
27729;BME280;15126;42.186;24.340;2023-02-04T11:22:05;98685.72;;;10.60;50.19
27729;BME280;15126;42.186;24.340;2023-02-04T11:24:33;98697.00;;;10.57;51.09
27729;BME280;15126;42.186;24.340;2023-02-04T11:27:18;98693.75;;;10.33;52.16
27729;BME280;15126;42.186;24.340;2023-02-04T11:29:48;98682.16;;;10.35;52.23
27729;BME280;15126;42.186;24.340;2023-02-04T11:32:32;98688.31;;;10.42;52.92
27729;BME280;15126;42.186;24.340;2023-02-04T11:35:30;98681.97;;;10.54;52.40
27729;BME280;15126;42.186;24.340;2023-02-04T11:37:58;98672.91;;;10.75;52.50
27729;BME280;15126;42.186;24.340;2023-02-04T11:40:30;98692.09;;;10.73;51.58
27729;BME280;15126;42.186;24.340;2023-02-04T11:42:59;98680.81;;;10.77;51.49
27729;BME280;15126;42.186;24.340;2023-02-04T11:45:30;98677.38;;;10.48;53.25
27729;BME280;15126;42.186;24.340;2023-02-04T11:48:00;98678.03;;;10.52;52.64
27729;BME280;15126;42.186;24.340;2023-02-04T11:50:29;98660.63;;;10.60;53.55
27729;BME280;15126;42.186;24.340;2023-02-04T11:52:57;98646.03;;;10.44;53.71
27729;BME280;15126;42.186;24.340;2023-02-04T11:55:28;98655.75;;;10.64;52.90
27729;BME280;15126;42.186;24.340;2023-02-04T11:57:56;98654.47;;;10.91;52.03
27729;BME280;15126;42.186;24.340;2023-02-04T12:00:24;98637.59;;;11.07;53.23
27729;BME280;15126;42.186;24.340;2023-02-04T12:02:57;98650.75;;;11.19;51.30
27729;BME280;15126;42.186;24.340;2023-02-04T12:05:35;98651.16;;;11.30;51.67
27729;BME280;15126;42.186;24.340;2023-02-04T12:08:12;98649.59;;;11.29;48.84
27729;BME280;15126;42.186;24.340;2023-02-04T12:10:47;98649.50;;;11.20;49.35
27729;BME280;15126;42.186;24.340;2023-02-04T12:13:17;98638.31;;;11.20;50.05
27729;BME280;15126;42.186;24.340;2023-02-04T12:15:53;98649.16;;;11.18;50.30
27729;BME280;15126;42.186;24.340;2023-02-04T12:18:22;98644.75;;;11.08;50.50
27729;BME280;15126;42.186;24.340;2023-02-04T12:20:49;98644.75;;;11.08;50.98
27729;BME280;15126;42.186;24.340;2023-02-04T12:23:15;98634.94;;;10.91;50.80
27729;BME280;15126;42.186;24.340;2023-02-04T12:25:42;98646.34;;;10.84;51.81
27729;BME280;15126;42.186;24.340;2023-02-04T12:28:09;98652.16;;;10.76;53.67
27729;BME280;15126;42.186;24.340;2023-02-04T12:30:36;98651.72;;;10.65;52.26
27729;BME280;15126;42.186;24.340;2023-02-04T12:33:03;98659.31;;;10.52;53.06
27729;BME280;15126;42.186;24.340;2023-02-04T12:35:31;98640.75;;;10.08;53.81
27729;BME280;15126;42.186;24.340;2023-02-04T12:37:58;98658.09;;;9.87;54.27
27729;BME280;15126;42.186;24.340;2023-02-04T12:40:25;98652.19;;;9.85;55.64
27729;BME280;15126;42.186;24.340;2023-02-04T12:42:51;98662.59;;;9.68;55.63
27729;BME280;15126;42.186;24.340;2023-02-04T12:45:18;98660.44;;;9.59;55.88
27729;BME280;15126;42.186;24.340;2023-02-04T12:47:45;98658.59;;;9.40;55.86
27729;BME280;15126;42.186;24.340;2023-02-04T12:50:14;98667.97;;;9.46;57.09
27729;BME280;15126;42.186;24.340;2023-02-04T12:52:49;98665.09;;;9.50;57.12
27729;BME280;15126;42.186;24.340;2023-02-04T12:55:16;98672.13;;;9.54;56.00
27729;BME280;15126;42.186;24.340;2023-02-04T12:57:43;98669.22;;;9.45;56.25
27729;BME280;15126;42.186;24.340;2023-02-04T13:00:12;98662.69;;;9.36;56.70
27729;BME280;15126;42.186;24.340;2023-02-04T13:02:39;98662.44;;;9.30;57.29